createdAt,value
2022-12-25T00:00:22.419Z,100441.59
2022-12-25T00:02:53.056Z,100439.70
2022-12-25T00:05:23.707Z,100441.35
2022-12-25T00:07:54.809Z,100444.05
2022-12-25T00:10:25.422Z,100447.83
2022-12-25T00:12:56.237Z,100447.14
2022-12-25T00:15:26.695Z,100451.83
2022-12-25T00:17:57.237Z,100457.04
2022-12-25T00:20:27.731Z,100462.09
2022-12-25T00:22:58.181Z,100466.52
2022-12-25T00:25:28.640Z,100466.08
2022-12-25T00:27:59.109Z,100468.76
2022-12-25T00:30:29.634Z,100470.23
2022-12-25T00:33:00.057Z,100469.14
2022-12-25T00:35:30.593Z,100471.52
2022-12-25T00:38:01.033Z,100471.86
2022-12-25T00:40:31.515Z,100472.58
2022-12-25T00:43:01.982Z,100479.58
2022-12-25T00:45:32.479Z,100482.34
2022-12-25T00:48:03.154Z,100483.36
2022-12-25T00:50:33.979Z,100479.21
2022-12-25T00:53:04.399Z,100477.67
2022-12-25T00:55:34.824Z,100477.64
2022-12-25T00:58:05.307Z,100481.39
2022-12-25T01:00:35.835Z,100484.16
2022-12-25T01:03:06.613Z,100483.79
2022-12-25T01:05:37.165Z,100488.21
2022-12-25T01:08:07.940Z,100491.40
2022-12-25T01:10:38.525Z,100499.63
2022-12-25T01:13:08.971Z,100503.86
2022-12-25T01:15:40.546Z,100506.14
2022-12-25T01:18:13.006Z,100505.04
2022-12-25T01:20:43.650Z,100508.84
2022-12-25T01:23:14.335Z,100519.44
2022-12-25T01:25:44.878Z,100520.68
2022-12-25T01:28:16.584Z,100520.70
2022-12-25T01:30:51.674Z,100526.98
2022-12-25T01:33:22.104Z,100531.19
2022-12-25T01:35:52.596Z,100526.57
2022-12-25T01:38:23.167Z,100526.64
2022-12-25T01:40:53.682Z,100526.71
2022-12-25T01:43:28.110Z,100528.47
2022-12-25T01:45:59.035Z,100529.16
2022-12-25T01:48:33.064Z,100525.43
2022-12-25T01:51:07.353Z,100521.50
2022-12-25T01:53:38.003Z,100520.96
2022-12-25T01:56:10.272Z,100522.11
2022-12-25T01:58:39.267Z,100516.69
2022-12-25T02:01:10.853Z,100520.51
2022-12-25T02:03:42.868Z,100520.79
2022-12-25T02:06:13.398Z,100524.67
2022-12-25T02:08:44.713Z,100525.54
2022-12-25T02:11:35.271Z,100524.27
2022-12-25T02:14:05.885Z,100519.20
2022-12-25T02:16:58.347Z,100521.46
2022-12-25T02:19:52.601Z,100528.73
2022-12-25T02:22:36.292Z,100525.41
2022-12-25T02:25:26.647Z,100525.23
2022-12-25T02:28:08.942Z,100526.95
2022-12-25T02:30:45.332Z,100528.41
2022-12-25T02:33:41.784Z,100524.11
2022-12-25T02:36:16.607Z,100532.17
2022-12-25T02:39:04.517Z,100538.70
2022-12-25T02:41:40.189Z,100546.45
2022-12-25T02:44:34.069Z,100543.91
2022-12-25T02:47:40.032Z,100544.52
2022-12-25T02:50:30.225Z,100548.40
2022-12-25T02:53:21.184Z,100556.02
2022-12-25T02:56:11.852Z,100560.38
2022-12-25T02:59:01.473Z,100559.13
2022-12-25T03:01:53.602Z,100562.60
2022-12-25T03:04:45.886Z,100559.77
2022-12-25T03:07:22.156Z,100556.53
2022-12-25T03:10:16.543Z,100556.47
2022-12-25T03:12:51.985Z,100554.13
2022-12-25T03:15:41.489Z,100556.16
2022-12-25T03:18:17.153Z,100560.67
2022-12-25T03:21:05.167Z,100563.52
2022-12-25T03:23:56.265Z,100568.95
2022-12-25T03:26:46.350Z,100573.41
2022-12-25T03:29:36.772Z,100577.91
2022-12-25T03:32:16.120Z,100583.54
2022-12-25T03:35:15.796Z,100590.08
2022-12-25T03:38:14.076Z,100597.59
2022-12-25T03:41:16.058Z,100596.73
2022-12-25T03:44:10.716Z,100599.85
2022-12-25T03:47:06.863Z,100596.88
2022-12-25T03:50:09.098Z,100603.44
2022-12-25T03:52:58.805Z,100604.11
2022-12-25T03:55:47.171Z,100603.06
2022-12-25T03:58:41.047Z,100604.49
2022-12-25T04:01:29.591Z,100608.75
2022-12-25T04:04:14.268Z,100610.25
2022-12-25T04:07:02.413Z,100610.67
2022-12-25T04:09:50.549Z,100611.63
2022-12-25T04:12:38.485Z,100608.30
2022-12-25T04:15:28.820Z,100609.81
2022-12-25T04:18:17.303Z,100613.13
2022-12-25T04:21:05.277Z,100603.98
2022-12-25T04:23:53.784Z,100602.41
2022-12-25T04:26:42.189Z,100604.33
2022-12-25T04:29:30.684Z,100606.02
2022-12-25T04:32:18.773Z,100614.89
2022-12-25T04:35:07.314Z,100614.73
2022-12-25T04:37:37.854Z,100616.05
2022-12-25T04:40:10.714Z,100617.62
2022-12-25T04:42:41.264Z,100615.18
2022-12-25T04:45:13.496Z,100615.93
2022-12-25T04:47:44.058Z,100620.36
2022-12-25T04:50:14.557Z,100625.46
2022-12-25T04:52:45.055Z,100623.55
2022-12-25T04:55:15.491Z,100626.34
2022-12-25T04:57:46.179Z,100630.95
2022-12-25T05:00:18.360Z,100627.54
2022-12-25T05:02:49.014Z,100631.21
2022-12-25T05:05:19.743Z,100628.61
2022-12-25T05:07:50.210Z,100628.92
2022-12-25T05:10:21.211Z,100631.58
2022-12-25T05:12:51.813Z,100637.80
2022-12-25T05:15:22.288Z,100638.73
2022-12-25T05:17:54.294Z,100641.96
2022-12-25T05:20:25.417Z,100643.70
2022-12-25T05:22:55.841Z,100647.95
2022-12-25T05:25:26.512Z,100651.38
2022-12-25T05:27:56.987Z,100660.96
2022-12-25T05:30:27.944Z,100665.77
2022-12-25T05:32:58.390Z,100655.48
2022-12-25T05:35:28.864Z,100650.98
2022-12-25T05:37:59.566Z,100655.84
2022-12-25T05:40:30.032Z,100658.63
2022-12-25T05:43:00.542Z,100658.77
2022-12-25T05:45:31.983Z,100659.58
2022-12-25T05:48:02.617Z,100664.72
2022-12-25T05:50:33.070Z,100653.67
2022-12-25T05:53:10.683Z,100662.73
2022-12-25T05:55:44.029Z,100666.84
2022-12-25T05:58:14.838Z,100667.14
2022-12-25T06:00:46.093Z,100667.44
2022-12-25T06:03:16.749Z,100667.30
2022-12-25T06:05:47.278Z,100675.38
2022-12-25T06:08:17.761Z,100674.34
2022-12-25T06:10:48.643Z,100676.77
2022-12-25T06:13:19.074Z,100680.27
2022-12-25T06:15:49.681Z,100688.62
2022-12-25T06:18:20.280Z,100696.23
2022-12-25T06:20:50.771Z,100700.99
2022-12-25T06:23:21.236Z,100700.70
2022-12-25T06:25:51.710Z,100702.19
2022-12-25T06:28:22.356Z,100702.25
2022-12-25T06:30:52.835Z,100711.09
2022-12-25T06:33:23.390Z,100719.00
2022-12-25T06:35:53.949Z,100725.13
2022-12-25T06:38:24.930Z,100723.45
2022-12-25T06:40:55.378Z,100725.78
2022-12-25T06:43:25.829Z,100733.23
2022-12-25T06:45:56.342Z,100741.31
2022-12-25T06:48:26.862Z,100733.90
2022-12-25T06:50:57.354Z,100737.52
2022-12-25T06:53:30.180Z,100739.91
2022-12-25T06:56:07.868Z,100738.00
2022-12-25T06:58:38.400Z,100734.95
2022-12-25T07:01:15.612Z,100730.91
2022-12-25T07:03:48.613Z,100732.28
2022-12-25T07:06:19.131Z,100734.02
2022-12-25T07:08:49.638Z,100739.15
2022-12-25T07:11:21.025Z,100734.63
2022-12-25T07:13:51.535Z,100733.67
2022-12-25T07:16:22.243Z,100729.80
2022-12-25T07:18:52.778Z,100733.66
2022-12-25T07:21:24.168Z,100740.27
2022-12-25T07:23:54.782Z,100740.30
2022-12-25T07:26:25.214Z,100739.45
2022-12-25T07:28:56.271Z,100742.27
2022-12-25T07:31:26.770Z,100744.55
2022-12-25T07:33:57.323Z,100751.23
2022-12-25T07:36:28.262Z,100752.80
2022-12-25T07:38:58.750Z,100757.25
2022-12-25T07:41:29.322Z,100752.16
2022-12-25T07:44:07.221Z,100749.98
2022-12-25T07:46:37.655Z,100751.09
2022-12-25T07:49:08.205Z,100742.44
2022-12-25T07:51:38.676Z,100736.26
2022-12-25T07:54:09.576Z,100744.34
2022-12-25T07:56:40.034Z,100747.75
2022-12-25T07:59:10.482Z,100754.89
2022-12-25T08:01:41.091Z,100753.68
2022-12-25T08:04:12.695Z,100755.14
2022-12-25T08:06:43.188Z,100753.16
2022-12-25T08:09:14.516Z,100750.85
2022-12-25T08:11:48.704Z,100756.70
2022-12-25T08:14:19.165Z,100760.70
2022-12-25T08:16:49.680Z,100757.38
2022-12-25T08:19:20.569Z,100763.80
2022-12-25T08:21:51.110Z,100762.64
2022-12-25T08:24:21.875Z,100764.58
2022-12-25T08:26:52.438Z,100764.92
2022-12-25T08:29:22.855Z,100769.58
2022-12-25T08:31:53.434Z,100770.33
2022-12-25T08:34:24.008Z,100774.92
2022-12-25T08:36:54.606Z,100774.09
2022-12-25T08:39:25.730Z,100779.16
2022-12-25T08:41:56.374Z,100782.35
2022-12-25T08:44:26.840Z,100780.21
2022-12-25T08:46:57.332Z,100784.92
2022-12-25T08:49:29.203Z,100786.05
2022-12-25T08:51:59.926Z,100788.77
2022-12-25T08:54:32.479Z,100789.70
2022-12-25T08:57:03.270Z,100786.21
2022-12-25T08:59:33.737Z,100788.16
2022-12-25T09:02:04.380Z,100797.94
2022-12-25T09:04:35.307Z,100797.69
2022-12-25T09:07:05.867Z,100799.98
2022-12-25T09:09:36.312Z,100798.02
2022-12-25T09:12:07.087Z,100799.81
2022-12-25T09:14:37.661Z,100802.95
2022-12-25T09:17:08.105Z,100806.58
2022-12-25T09:19:38.544Z,100806.86
2022-12-25T09:22:09.003Z,100805.58
2022-12-25T09:24:39.968Z,100801.19
2022-12-25T09:27:10.539Z,100797.58
2022-12-25T09:29:40.990Z,100797.08
2022-12-25T09:32:11.590Z,100802.48
2022-12-25T09:34:42.041Z,100800.46
2022-12-25T09:37:12.490Z,100800.23
2022-12-25T09:39:46.309Z,100791.02
2022-12-25T09:42:21.393Z,100793.44
2022-12-25T09:44:56.427Z,100792.00
2022-12-25T09:47:30.242Z,100786.66
2022-12-25T09:50:05.293Z,100782.64
2022-12-25T09:52:44.614Z,100781.73
2022-12-25T09:55:20.522Z,100787.59
2022-12-25T09:57:53.899Z,100788.67
2022-12-25T10:00:27.063Z,100786.09
2022-12-25T10:03:13.565Z,100785.61
2022-12-25T10:05:59.933Z,100785.89
2022-12-25T10:08:47.959Z,100780.98
2022-12-25T10:11:32.746Z,100775.56
2022-12-25T10:14:09.729Z,100773.21
2022-12-25T10:16:50.800Z,100776.73
2022-12-25T10:19:31.705Z,100775.29
2022-12-25T10:22:09.189Z,100778.25
2022-12-25T10:24:45.193Z,100778.64
2022-12-25T10:27:19.653Z,100774.92
2022-12-25T10:29:54.864Z,100769.33
2022-12-25T10:32:25.521Z,100761.86
2022-12-25T10:34:56.344Z,100759.32
2022-12-25T10:37:27.616Z,100756.73
2022-12-25T10:39:58.410Z,100754.91
2022-12-25T10:42:38.510Z,100753.35
2022-12-25T10:45:11.393Z,100747.70
2022-12-25T10:47:42.944Z,100745.45
2022-12-25T10:50:21.686Z,100738.27
2022-12-25T10:53:00.591Z,100735.40
2022-12-25T10:55:31.320Z,100730.39
2022-12-25T10:58:02.935Z,100726.52
2022-12-25T11:00:34.749Z,100722.64
2022-12-25T11:03:05.311Z,100726.48
2022-12-25T11:05:37.115Z,100718.67
2022-12-25T11:08:22.156Z,100712.47
2022-12-25T11:10:58.490Z,100707.60
2022-12-25T11:13:30.942Z,100701.36
2022-12-25T11:16:11.142Z,100701.27
2022-12-25T11:18:49.434Z,100693.13
2022-12-25T11:21:24.929Z,100688.36
2022-12-25T11:24:01.413Z,100685.39
2022-12-25T11:26:37.324Z,100688.94
2022-12-25T11:29:17.132Z,100692.77
2022-12-25T11:31:48.555Z,100693.66
2022-12-25T11:34:31.688Z,100692.77
2022-12-25T11:37:04.256Z,100691.92
2022-12-25T11:39:37.140Z,100688.84
2022-12-25T11:42:15.170Z,100688.00
2022-12-25T11:44:50.690Z,100684.55
2022-12-25T11:47:26.258Z,100685.63
2022-12-25T11:50:03.425Z,100684.00
2022-12-25T11:52:39.502Z,100688.29
2022-12-25T11:55:25.083Z,100682.06
2022-12-25T11:57:58.982Z,100678.13
2022-12-25T12:00:31.366Z,100677.72
2022-12-25T12:03:07.892Z,100675.84
2022-12-25T12:05:49.711Z,100675.55
2022-12-25T12:08:20.255Z,100679.30
2022-12-25T12:11:16.921Z,100672.71
2022-12-25T12:13:58.288Z,100670.95
2022-12-25T12:16:29.288Z,100669.34
2022-12-25T12:18:59.876Z,100664.77
2022-12-25T12:21:32.150Z,100664.64
2022-12-25T12:24:07.928Z,100665.01
2022-12-25T12:26:42.513Z,100662.13
2022-12-25T12:29:29.467Z,100661.63
2022-12-25T12:32:03.964Z,100664.05
2022-12-25T12:34:40.410Z,100659.17
2022-12-25T12:37:24.792Z,100653.21
2022-12-25T12:39:56.731Z,100652.13
2022-12-25T12:42:30.222Z,100655.29
2022-12-25T12:45:11.159Z,100655.45
2022-12-25T12:47:46.540Z,100654.05
2022-12-25T12:50:36.028Z,100657.70
2022-12-25T12:53:28.470Z,100656.75
2022-12-25T12:56:09.635Z,100663.16
2022-12-25T12:58:46.312Z,100661.55
2022-12-25T13:01:34.121Z,100661.25
2022-12-25T13:04:24.447Z,100658.44
2022-12-25T13:07:04.725Z,100653.26
2022-12-25T13:09:54.093Z,100646.07
2022-12-25T13:12:26.138Z,100641.25
2022-12-25T13:14:56.632Z,100641.55
2022-12-25T13:17:28.635Z,100645.39
2022-12-25T13:19:59.111Z,100647.91
2022-12-25T13:22:33.922Z,100649.96
2022-12-25T13:25:07.786Z,100639.98
2022-12-25T13:27:38.649Z,100639.09
2022-12-25T13:30:20.689Z,100647.45
2022-12-25T13:32:51.353Z,100649.34
2022-12-25T13:35:24.048Z,100647.43
2022-12-25T13:37:56.213Z,100642.23
2022-12-25T13:40:28.942Z,100640.83
2022-12-25T13:43:02.311Z,100630.92
2022-12-25T13:45:35.062Z,100627.42
2022-12-25T13:48:17.225Z,100614.98
2022-12-25T13:50:56.865Z,100608.44
2022-12-25T13:53:27.406Z,100604.77
2022-12-25T13:55:59.547Z,100593.66
2022-12-25T13:58:34.795Z,100592.56
2022-12-25T14:01:06.324Z,100587.79
2022-12-25T14:03:41.015Z,100594.89
2022-12-25T14:06:20.808Z,100610.00
2022-12-25T14:08:52.564Z,100616.92
2022-12-25T14:11:25.439Z,100617.16
2022-12-25T14:14:01.286Z,100620.14
2022-12-25T14:16:32.311Z,100614.90
2022-12-25T14:19:04.715Z,100615.97
2022-12-25T14:21:38.396Z,100615.02
2022-12-25T14:24:16.417Z,100612.98
2022-12-25T14:26:46.902Z,100610.13
2022-12-25T14:29:25.044Z,100609.56
2022-12-25T14:32:00.574Z,100613.91
2022-12-25T14:34:33.081Z,100612.00
2022-12-25T14:37:04.792Z,100611.64
2022-12-25T14:39:37.714Z,100607.23
2022-12-25T14:42:20.320Z,100613.33
2022-12-25T14:45:07.453Z,100613.64
2022-12-25T14:47:51.991Z,100626.06
2022-12-25T14:50:30.680Z,100621.83
2022-12-25T14:53:01.567Z,100618.40
2022-12-25T14:55:32.710Z,100608.84
2022-12-25T14:58:05.979Z,100604.41
2022-12-25T15:00:38.776Z,100604.71
2022-12-25T15:03:20.981Z,100597.47
2022-12-25T15:06:01.316Z,100596.21
2022-12-25T15:08:34.228Z,100599.27
2022-12-25T15:11:04.851Z,100600.15
2022-12-25T15:13:35.605Z,100605.30
2022-12-25T15:16:13.764Z,100608.50
2022-12-25T15:18:47.139Z,100602.89
2022-12-25T15:21:22.107Z,100597.09
2022-12-25T15:23:53.088Z,100585.13
2022-12-25T15:26:23.578Z,100584.52
2022-12-25T15:28:54.052Z,100600.15
2022-12-25T15:31:27.066Z,100598.77
2022-12-25T15:33:59.155Z,100598.25
2022-12-25T15:36:30.067Z,100592.24
2022-12-25T15:39:00.524Z,100590.23
2022-12-25T15:41:50.964Z,100585.21
2022-12-25T15:44:21.836Z,100576.69
2022-12-25T15:46:52.502Z,100576.91
2022-12-25T15:49:23.201Z,100574.44
2022-12-25T15:51:53.666Z,100576.52
2022-12-25T15:54:24.223Z,100577.39
2022-12-25T15:56:58.271Z,100584.06
2022-12-25T15:59:29.076Z,100588.04
2022-12-25T16:02:02.597Z,100589.66
2022-12-25T16:04:33.304Z,100587.30
2022-12-25T16:07:03.945Z,100579.67
2022-12-25T16:09:34.466Z,100573.25
2022-12-25T16:12:04.965Z,100570.69
2022-12-25T16:14:35.509Z,100558.81
2022-12-25T16:17:06.417Z,100556.49
2022-12-25T16:19:36.959Z,100562.11
2022-12-25T16:22:13.943Z,100558.20
2022-12-25T16:24:44.365Z,100544.38
2022-12-25T16:27:14.860Z,100537.19
2022-12-25T16:29:45.440Z,100538.55
2022-12-25T16:32:17.284Z,100526.75
2022-12-25T16:34:49.409Z,100514.98
2022-12-25T16:37:20.227Z,100516.95
2022-12-25T16:39:50.657Z,100513.10
2022-12-25T16:42:21.183Z,100515.56
2022-12-25T16:44:51.820Z,100514.95
2022-12-25T16:47:22.292Z,100516.73
2022-12-25T16:49:52.721Z,100509.26
2022-12-25T16:52:23.159Z,100508.30
2022-12-25T16:54:53.620Z,100509.24
2022-12-25T16:57:24.056Z,100505.21
2022-12-25T16:59:54.982Z,100506.77
2022-12-25T17:02:25.625Z,100509.87
2022-12-25T17:04:56.217Z,100510.95
2022-12-25T17:07:26.676Z,100517.89
2022-12-25T17:09:58.121Z,100524.27
2022-12-25T17:12:28.640Z,100521.45
2022-12-25T17:14:59.106Z,100516.64
2022-12-25T17:17:29.942Z,100512.40
2022-12-25T17:20:00.426Z,100499.64
2022-12-25T17:22:30.901Z,100487.86
2022-12-25T17:25:01.423Z,100485.64
2022-12-25T17:27:31.928Z,100476.04
2022-12-25T17:30:02.379Z,100475.65
2022-12-25T17:32:32.909Z,100479.31
2022-12-25T17:35:04.030Z,100483.02
2022-12-25T17:37:35.847Z,100482.73
2022-12-25T17:40:07.741Z,100482.81
2022-12-25T17:42:38.180Z,100486.42
2022-12-25T17:45:11.140Z,100487.52
2022-12-25T17:47:41.579Z,100483.48
2022-12-25T17:50:12.331Z,100484.15
2022-12-25T17:52:42.743Z,100483.95
2022-12-25T17:55:13.389Z,100481.66
2022-12-25T17:57:43.896Z,100476.99
2022-12-25T18:00:16.063Z,100469.65
2022-12-25T18:02:47.350Z,100469.09
2022-12-25T18:05:18.235Z,100469.15
2022-12-25T18:07:48.824Z,100461.67
2022-12-25T18:10:19.680Z,100462.55
2022-12-25T18:12:50.212Z,100461.73
2022-12-25T18:15:20.897Z,100455.77
2022-12-25T18:17:51.364Z,100444.48
2022-12-25T18:20:22.145Z,100436.73
2022-12-25T18:22:52.577Z,100432.17
2022-12-25T18:25:23.073Z,100432.73
2022-12-25T18:27:55.114Z,100426.15
2022-12-25T18:30:25.561Z,100425.88
2022-12-25T18:32:56.391Z,100419.14
2022-12-25T18:35:29.921Z,100409.66
2022-12-25T18:38:00.715Z,100402.41
2022-12-25T18:40:31.750Z,100404.84
2022-12-25T18:43:03.679Z,100402.74
2022-12-25T18:45:34.618Z,100412.43
2022-12-25T18:48:06.350Z,100401.77
2022-12-25T18:50:38.188Z,100399.50
2022-12-25T18:53:09.064Z,100392.60
2022-12-25T18:55:42.630Z,100393.65
2022-12-25T18:58:13.096Z,100392.30
2022-12-25T19:00:43.572Z,100390.27
2022-12-25T19:03:14.280Z,100383.13
2022-12-25T19:05:44.782Z,100378.30
2022-12-25T19:08:15.527Z,100377.74
2022-12-25T19:10:46.391Z,100372.17
2022-12-25T19:13:16.932Z,100365.23
2022-12-25T19:15:47.461Z,100360.38
2022-12-25T19:18:17.997Z,100357.19
2022-12-25T19:20:48.438Z,100356.94
2022-12-25T19:23:18.836Z,100355.48
2022-12-25T19:25:49.749Z,100354.56
2022-12-25T19:28:20.258Z,100353.29
2022-12-25T19:30:52.776Z,100347.84
2022-12-25T19:33:23.834Z,100346.96
2022-12-25T19:35:54.362Z,100342.66
2022-12-25T19:38:24.824Z,100334.76
2022-12-25T19:41:01.526Z,100329.80
2022-12-25T19:43:33.938Z,100330.01
2022-12-25T19:46:05.832Z,100332.95
2022-12-25T19:48:37.341Z,100327.66
2022-12-25T19:51:17.367Z,100324.12
2022-12-25T19:53:48.257Z,100314.67
2022-12-25T19:56:19.506Z,100312.29
2022-12-25T19:58:49.995Z,100311.42
2022-12-25T20:01:23.136Z,100310.25
2022-12-25T20:03:53.838Z,100308.45
2022-12-25T20:06:26.595Z,100302.60
2022-12-25T20:08:58.843Z,100299.45
2022-12-25T20:11:29.073Z,100294.39
2022-12-25T20:14:00.124Z,100285.42
2022-12-25T20:16:31.108Z,100266.17
2022-12-25T20:19:01.671Z,100259.02
2022-12-25T20:21:32.168Z,100264.56
2022-12-25T20:24:02.888Z,100279.82
2022-12-25T20:26:33.934Z,100285.58
2022-12-25T20:29:04.902Z,100286.20
2022-12-25T20:31:36.444Z,100287.48
2022-12-25T20:34:12.191Z,100281.89
2022-12-25T20:36:42.908Z,100281.43
2022-12-25T20:39:15.281Z,100279.07
2022-12-25T20:41:47.774Z,100276.14
2022-12-25T20:44:18.296Z,100276.97
2022-12-25T20:46:48.764Z,100268.23
2022-12-25T20:49:19.255Z,100261.98
2022-12-25T20:51:49.681Z,100240.11
2022-12-25T20:54:20.235Z,100230.81
2022-12-25T20:56:51.423Z,100240.45
2022-12-25T20:59:21.902Z,100249.48
2022-12-25T21:01:54.385Z,100252.65
2022-12-25T21:04:24.965Z,100239.00
2022-12-25T21:06:55.519Z,100234.67
2022-12-25T21:09:26.051Z,100228.17
2022-12-25T21:11:56.502Z,100223.69
2022-12-25T21:14:29.676Z,100225.28
2022-12-25T21:17:00.292Z,100214.94
2022-12-25T21:19:30.899Z,100209.89
2022-12-25T21:22:01.405Z,100215.33
2022-12-25T21:24:31.835Z,100210.32
2022-12-25T21:27:02.416Z,100202.59
2022-12-25T21:29:32.884Z,100201.86
2022-12-25T21:32:20.792Z,100198.89
2022-12-25T21:34:51.246Z,100194.14
2022-12-25T21:37:21.726Z,100198.96
2022-12-25T21:39:53.676Z,100195.13
2022-12-25T21:42:24.845Z,100187.39
2022-12-25T21:44:55.264Z,100184.95
2022-12-25T21:47:25.812Z,100177.42
2022-12-25T21:50:39.115Z,100185.67
2022-12-25T21:53:09.970Z,100190.20
2022-12-25T21:55:40.524Z,100194.86
2022-12-25T21:58:11.121Z,100205.69
2022-12-25T22:00:41.572Z,100210.36
2022-12-25T22:03:12.068Z,100215.48
2022-12-25T22:06:00.303Z,100222.00
2022-12-25T22:08:33.484Z,100223.73
2022-12-25T22:11:26.803Z,100215.77
2022-12-25T22:14:14.899Z,100208.64
2022-12-25T22:17:03.186Z,100197.55
2022-12-25T22:19:43.198Z,100191.04
2022-12-25T22:22:14.183Z,100182.95
2022-12-25T22:24:45.145Z,100170.30
2022-12-25T22:27:16.366Z,100177.04
2022-12-25T22:29:47.652Z,100183.40
2022-12-25T22:32:19.362Z,100185.22
2022-12-25T22:34:49.847Z,100183.83
2022-12-25T22:37:21.205Z,100181.81
2022-12-25T22:39:51.944Z,100178.93
2022-12-25T22:42:22.416Z,100172.09
2022-12-25T22:44:52.873Z,100166.64
2022-12-25T22:47:23.486Z,100154.05
2022-12-25T22:49:53.968Z,100139.52
2022-12-25T22:52:24.843Z,100132.69
2022-12-25T22:54:55.352Z,100134.14
2022-12-25T22:57:26.111Z,100129.48
2022-12-25T22:59:56.742Z,100120.94
2022-12-25T23:02:27.467Z,100111.02
2022-12-25T23:04:58.310Z,100109.29
2022-12-25T23:07:28.746Z,100103.15
2022-12-25T23:09:59.216Z,100118.38
2022-12-25T23:12:47.803Z,100124.63
2022-12-25T23:15:18.727Z,100120.80
2022-12-25T23:18:05.704Z,100127.30
2022-12-25T23:20:54.495Z,100130.39
2022-12-25T23:23:42.687Z,100128.73
2022-12-25T23:26:14.372Z,100126.16
2022-12-25T23:29:02.935Z,100128.52
2022-12-25T23:31:36.093Z,100124.09
2022-12-25T23:34:07.542Z,100116.95
2022-12-25T23:36:38.165Z,100108.61
2022-12-25T23:39:10.456Z,100104.52
2022-12-25T23:41:42.901Z,100104.90
2022-12-25T23:44:13.882Z,100105.27
2022-12-25T23:46:53.332Z,100111.70
2022-12-25T23:49:25.776Z,100111.34
2022-12-25T23:51:57.145Z,100119.14
2022-12-25T23:54:31.195Z,100118.89
2022-12-25T23:57:02.204Z,100114.02
2022-12-25T23:59:33.321Z,100106.23
